createdAt,value
2022-12-01T03:10:43.504Z,101654.49
2022-12-01T03:11:49.200Z,101654.41
2022-12-01T03:13:15.776Z,101652.59
2022-12-01T03:14:21.417Z,101643.10
2022-12-01T03:15:36.103Z,101650.05
2022-12-01T03:16:45.597Z,101655.09
2022-12-01T03:18:10.895Z,101650.00
2022-12-01T03:19:19.671Z,101644.15
2022-12-01T03:20:41.877Z,101649.19
2022-12-01T03:21:53.738Z,101653.48
2022-12-01T03:23:02.085Z,101646.41
2022-12-01T03:24:10.450Z,101644.78
2022-12-01T03:25:14.322Z,101645.78
2022-12-01T03:26:20.370Z,101643.19
2022-12-01T03:27:26.091Z,101641.47
2022-12-01T03:28:31.733Z,101646.69
2022-12-01T03:29:43.523Z,101636.44
2022-12-01T03:30:48.933Z,101646.73
2022-12-01T03:31:57.427Z,101646.87
2022-12-01T03:33:11.647Z,101640.84
2022-12-01T03:34:29.093Z,101648.69
2022-12-01T03:35:34.791Z,101642.70
2022-12-01T03:36:43.615Z,101642.88
2022-12-01T03:37:58.279Z,101645.28
2022-12-01T03:39:03.929Z,101641.11
2022-12-01T03:40:10.078Z,101640.29
2022-12-01T03:41:15.757Z,101641.88
2022-12-01T03:42:21.527Z,101643.61
2022-12-01T03:43:29.972Z,101644.61
2022-12-01T03:44:38.667Z,101638.52
2022-12-01T03:45:59.768Z,101640.02
2022-12-01T03:47:11.543Z,101643.52
2022-12-01T03:48:13.829Z,101648.01
2022-12-01T03:49:17.872Z,101645.28
2022-12-01T03:50:21.582Z,101642.97
2022-12-01T03:51:32.769Z,101646.28
2022-12-01T03:52:41.355Z,101647.92
2022-12-01T03:53:47.032Z,101641.02
2022-12-01T03:54:58.753Z,101642.66
2022-12-01T03:56:03.326Z,101654.55
2022-12-01T03:57:09.002Z,101649.23
2022-12-01T03:59:31.605Z,101639.25
2022-12-01T04:00:33.816Z,101652.05
2022-12-01T04:01:36.148Z,101650.19
2022-12-01T04:02:38.955Z,101657.13
2022-12-01T04:03:40.981Z,101648.50
2022-12-01T04:04:42.832Z,101648.45
2022-12-01T04:05:46.445Z,101651.00
2022-12-01T04:06:50.392Z,101650.23
2022-12-01T04:07:52.987Z,101649.37
2022-12-01T04:08:54.974Z,101657.86
2022-12-01T04:09:56.976Z,101656.22
2022-12-01T04:10:59.776Z,101651.95
2022-12-01T04:12:03.636Z,101657.99
2022-12-01T04:13:05.538Z,101657.90
2022-12-01T04:14:07.399Z,101650.28
2022-12-01T04:15:11.806Z,101664.93
2022-12-01T04:16:13.826Z,101655.50
2022-12-01T04:17:16.024Z,101650.09
2022-12-01T04:18:18.921Z,101653.63
2022-12-01T04:19:21.330Z,101653.63
2022-12-01T04:20:23.383Z,101654.55
2022-12-01T04:21:25.249Z,101657.03
2022-12-01T04:22:27.109Z,101655.31
2022-12-01T04:23:29.084Z,101649.28
2022-12-01T04:24:30.956Z,101661.30
2022-12-01T04:25:32.821Z,101657.86
2022-12-01T04:26:36.677Z,101653.63
2022-12-01T04:27:39.957Z,101655.18
2022-12-01T04:28:41.953Z,101657.03
2022-12-01T04:29:43.894Z,101657.86
2022-12-01T04:30:46.788Z,101651.00
2022-12-01T04:31:48.702Z,101662.25
2022-12-01T04:32:52.362Z,101657.95
2022-12-01T04:33:55.682Z,101664.03
2022-12-01T04:34:57.558Z,101659.44
2022-12-01T04:36:00.380Z,101661.25
2022-12-01T04:37:04.047Z,101659.44
2022-12-01T04:38:07.034Z,101662.12
2022-12-01T04:39:08.899Z,101657.03
2022-12-01T04:41:01.398Z,101652.14
2022-12-01T04:42:04.299Z,101656.13
2022-12-01T04:43:06.236Z,101653.54
2022-12-01T04:44:10.575Z,101657.13
2022-12-01T04:45:12.539Z,101657.90
2022-12-01T04:46:14.556Z,101657.77
2022-12-01T04:47:17.151Z,101658.71
2022-12-01T04:48:19.045Z,101660.45
2022-12-01T04:49:21.814Z,101666.19
2022-12-01T04:50:23.932Z,101656.85
2022-12-01T04:51:27.561Z,101662.98
2022-12-01T04:52:35.041Z,101664.70
2022-12-01T04:53:34.998Z,101661.25
2022-12-01T04:54:36.882Z,101666.56
2022-12-01T04:55:38.749Z,101662.98
2022-12-01T04:56:41.320Z,101662.89
2022-12-01T04:57:43.203Z,101663.74
2022-12-01T04:58:45.749Z,101661.20
2022-12-01T04:59:47.972Z,101662.98
2022-12-01T05:00:50.483Z,101656.95
2022-12-01T05:01:52.894Z,101667.29
2022-12-01T05:02:54.909Z,101659.44
2022-12-01T05:03:57.051Z,101663.61
2022-12-01T05:04:58.949Z,101668.78
2022-12-01T05:06:06.891Z,101662.75
2022-12-01T05:07:08.856Z,101664.61
2022-12-01T05:08:11.357Z,101658.62
2022-12-01T05:09:17.547Z,101661.02
2022-12-01T05:10:19.694Z,101663.79
2022-12-01T05:11:22.822Z,101667.15
2022-12-01T05:12:25.596Z,101667.15
2022-12-01T05:13:28.430Z,101665.34
2022-12-01T05:14:30.422Z,101668.02
2022-12-01T05:15:32.376Z,101668.96
2022-12-01T05:16:35.448Z,101662.89
2022-12-01T05:17:37.823Z,101656.85
2022-12-01T05:18:39.979Z,101663.65
2022-12-01T05:19:42.018Z,101670.55
2022-12-01T05:20:44.179Z,101668.92
2022-12-01T05:21:48.344Z,101669.78
2022-12-01T05:23:05.176Z,101670.60
2022-12-01T05:23:54.034Z,101668.88
2022-12-01T05:24:55.899Z,101667.02
2022-12-01T05:25:58.044Z,101667.20
2022-12-01T05:27:00.225Z,101673.14
2022-12-01T05:28:03.408Z,101673.23
2022-12-01T05:29:05.295Z,101673.23
2022-12-01T05:30:09.204Z,101672.41
2022-12-01T05:31:11.118Z,101665.43
2022-12-01T05:32:14.586Z,101680.03
2022-12-01T05:33:16.900Z,101674.23
2022-12-01T05:34:19.047Z,101672.46
2022-12-01T05:35:20.914Z,101673.38
2022-12-01T05:36:23.529Z,101676.77
2022-12-01T05:37:25.390Z,101668.96
2022-12-01T05:38:27.232Z,101679.49
2022-12-01T05:39:29.136Z,101672.69
2022-12-01T05:40:31.341Z,101676.14
2022-12-01T05:41:33.477Z,101670.33
2022-12-01T05:42:35.542Z,101678.00
2022-12-01T05:43:37.406Z,101676.14
2022-12-01T05:44:39.382Z,101679.55
2022-12-01T05:45:41.279Z,101671.93
2022-12-01T05:46:43.327Z,101672.73
2022-12-01T05:47:45.187Z,101677.63
2022-12-01T05:48:47.068Z,101678.59
2022-12-01T05:49:49.159Z,101682.19
2022-12-01T05:50:51.743Z,101683.81
2022-12-01T05:51:53.835Z,101684.73
2022-12-01T05:52:55.699Z,101686.49
2022-12-01T05:54:00.731Z,101681.19
2022-12-01T05:55:04.868Z,101686.30
2022-12-01T05:56:07.700Z,101687.25
2022-12-01T05:57:09.633Z,101681.13
2022-12-01T05:58:11.753Z,101688.08
2022-12-01T05:59:13.635Z,101686.49
2022-12-01T06:00:17.252Z,101683.13
2022-12-01T06:01:19.149Z,101688.44
2022-12-01T06:02:21.054Z,101682.38
2022-12-01T06:03:23.009Z,101683.04
2022-12-01T06:04:25.187Z,101685.58
2022-12-01T06:05:28.030Z,101695.08
2022-12-01T06:06:30.004Z,101689.08
2022-12-01T06:07:31.992Z,101687.36
2022-12-01T06:08:34.897Z,101684.09
2022-12-01T06:09:36.807Z,101685.72
2022-12-01T06:10:38.783Z,101684.95
2022-12-01T06:11:40.639Z,101684.14
2022-12-01T06:12:42.515Z,101688.59
2022-12-01T06:13:44.395Z,101699.84
2022-12-01T06:14:46.274Z,101686.86
2022-12-01T06:17:11.373Z,101690.17
2022-12-01T06:18:13.230Z,101694.31
2022-12-01T06:19:15.088Z,101699.89
2022-12-01T06:20:17.315Z,101687.28
2022-12-01T06:21:19.153Z,101691.72
2022-12-01T06:22:21.012Z,101692.81
2022-12-01T06:23:27.548Z,101693.67
2022-12-01T06:24:27.277Z,101695.57
2022-12-01T06:25:29.186Z,101693.80
2022-12-01T06:26:31.159Z,101694.75
2022-12-01T06:27:32.999Z,101698.42
2022-12-01T06:28:36.076Z,101686.55
2022-12-01T06:29:42.085Z,101686.55
2022-12-01T12:16:45.856Z,101562.72
2022-12-01T12:18:26.990Z,101570.40
2022-12-01T12:19:34.281Z,101563.45
2022-12-01T12:20:46.536Z,101559.93
2022-12-01T12:22:08.797Z,101561.75
2022-12-01T12:23:39.019Z,101563.52
2022-12-01T12:24:50.290Z,101559.17
2022-12-01T12:25:59.221Z,101565.34
2022-12-01T12:27:26.170Z,101561.81
2022-12-01T12:28:53.531Z,101566.16
2022-12-01T12:30:23.734Z,101558.33
2022-12-01T12:31:44.786Z,101564.45
2022-12-01T12:33:16.663Z,101566.19
2022-12-01T12:34:43.441Z,101569.72
2022-12-01T12:35:52.218Z,101571.45
2022-12-01T12:37:03.717Z,101562.84
2022-12-01T12:38:26.354Z,101568.13
2022-12-01T12:40:02.679Z,101562.92
2022-12-01T12:42:45.164Z,101564.77
2022-12-01T12:44:09.205Z,101553.41
2022-12-01T12:45:14.885Z,101567.33
2022-12-01T12:46:29.594Z,101563.72
2022-12-01T12:47:47.061Z,101566.41
2022-12-01T12:50:28.644Z,101579.45
2022-12-01T12:51:44.657Z,101571.65
2022-12-01T12:52:50.335Z,101575.97
2022-12-01T12:54:14.011Z,101576.81
2022-12-01T12:55:34.262Z,101574.29
2022-12-01T12:56:36.883Z,101578.59
2022-12-01T12:57:42.532Z,101572.53
2022-12-01T12:58:51.094Z,101569.03
2022-12-01T13:00:05.846Z,101580.32
2022-12-01T13:01:14.593Z,101571.65
2022-12-01T13:03:53.064Z,101571.73
2022-12-01T13:06:10.512Z,101577.72
2022-12-01T13:07:20.229Z,101576.58
2022-12-01T13:08:41.537Z,101577.49
2022-12-01T13:09:47.518Z,101576.56
2022-12-01T13:10:59.768Z,101578.31
2022-12-01T13:12:08.379Z,101581.75
2022-12-01T13:13:25.619Z,101580.91
2022-12-01T13:14:31.282Z,101580.88
2022-12-01T13:15:34.645Z,101573.02
2022-12-01T13:16:40.520Z,101573.05
2022-12-01T13:17:55.339Z,101574.74
2022-12-01T13:19:12.858Z,101580.81
2022-12-01T13:20:17.893Z,101570.40
2022-12-01T13:21:21.679Z,101566.91
2022-12-01T13:22:33.358Z,101578.11
2022-12-01T13:23:36.969Z,101578.06
2022-12-01T13:24:39.430Z,101565.95
2022-12-01T13:25:43.561Z,101571.23
2022-12-01T13:26:49.771Z,101577.93
2022-12-01T13:27:53.017Z,101571.77
2022-12-01T13:28:57.010Z,101573.69
2022-12-01T13:29:59.900Z,101573.66
2022-12-01T13:31:10.980Z,101571.10
2022-12-01T13:32:34.951Z,101571.06
2022-12-01T13:33:39.286Z,101570.13
2022-12-01T13:34:42.983Z,101570.17
2022-12-01T13:36:07.052Z,101569.29
2022-12-01T13:36:54.795Z,101570.02
2022-12-01T13:38:17.312Z,101566.50
2022-12-01T13:39:29.654Z,101563.09
2022-12-01T13:40:31.768Z,101564.00
2022-12-01T13:41:36.759Z,101567.44
2022-12-01T13:42:39.971Z,101568.30
2022-12-01T13:44:03.421Z,101568.34
2022-12-01T13:45:19.872Z,101563.92
2022-12-01T13:46:26.543Z,101570.04
2022-12-01T13:47:41.192Z,101569.11
2022-12-01T13:48:46.820Z,101563.88
2022-12-01T13:49:51.758Z,101573.48
2022-12-01T13:50:58.513Z,101571.73
2022-12-01T13:52:23.142Z,101565.62
2022-12-01T13:53:28.558Z,101566.50
2022-12-01T13:54:34.195Z,101564.84
2022-12-01T13:55:39.847Z,101551.61
2022-12-01T13:56:45.421Z,101566.53
2022-12-01T13:57:51.035Z,101570.77
2022-12-01T13:58:54.370Z,101563.91
2022-12-01T14:00:03.026Z,101562.19
2022-12-01T14:01:24.177Z,101567.34
2022-12-01T14:02:29.475Z,101565.62
2022-12-01T14:03:34.558Z,101568.20
2022-12-01T14:04:36.681Z,101569.06
2022-12-01T14:05:54.326Z,101558.66
2022-12-01T14:07:15.136Z,101568.23
2022-12-01T14:08:30.117Z,101564.74
2022-12-01T14:09:38.415Z,101556.08
2022-12-01T14:10:40.726Z,101562.97
2022-12-01T14:11:59.215Z,101559.50
2022-12-01T14:13:05.913Z,101559.50
2022-12-01T14:14:25.591Z,101561.21
2022-12-01T14:15:41.329Z,101569.01
2022-12-01T14:16:49.156Z,101564.70
2022-12-01T14:18:09.676Z,101574.21
2022-12-01T14:19:50.884Z,101577.66
2022-12-01T14:20:53.423Z,101572.48
2022-12-01T14:21:56.465Z,101569.85
2022-12-01T15:03:32.012Z,101583.16
2022-12-01T15:04:32.213Z,101573.44
2022-12-01T15:05:40.207Z,101579.55
2022-12-01T15:06:43.310Z,101577.03
2022-12-01T15:07:49.597Z,101577.09
2022-12-01T15:10:26.093Z,101579.69
2022-12-01T15:11:28.263Z,101576.30
2022-12-01T15:12:31.212Z,101571.98
2022-12-01T15:13:48.965Z,101573.70
2022-12-01T15:14:51.246Z,101577.16
2022-12-01T15:16:02.794Z,101572.02
2022-12-01T15:17:06.396Z,101571.12
2022-12-01T15:18:12.052Z,101580.73
2022-12-01T15:19:40.623Z,101576.37
2022-12-01T15:20:47.668Z,101579.00
2022-12-01T15:21:46.528Z,101582.44
2022-12-01T15:22:49.736Z,101566.00
2022-12-01T15:23:53.966Z,101569.52
2022-12-01T15:25:14.250Z,101566.03
2022-12-01T15:27:31.924Z,101568.72
2022-12-01T15:28:35.770Z,101572.91
2022-12-01T15:29:43.697Z,101578.11
2022-12-01T15:30:49.578Z,101572.98
2022-12-01T15:32:00.956Z,101572.06
2022-12-01T15:33:04.962Z,101570.38
2022-12-01T15:34:10.626Z,101569.52
2022-12-01T18:20:29.150Z,101515.16
2022-12-01T18:22:40.550Z,101519.59
2022-12-01T18:23:52.127Z,101523.72
2022-12-01T18:24:54.105Z,101519.44
2022-12-01T18:25:55.938Z,101522.88
2022-12-01T18:26:57.991Z,101521.92
2022-12-01T18:28:02.002Z,101518.49
2022-12-01T18:29:09.957Z,101523.69
2022-12-01T18:30:13.509Z,101514.92
2022-12-01T18:31:15.906Z,101518.44
2022-12-01T18:32:17.968Z,101527.14
2022-12-01T18:33:19.831Z,101516.73
2022-12-01T18:34:22.212Z,101521.92
2022-12-01T18:35:28.829Z,101521.09
2022-12-01T18:36:31.246Z,101525.39
2022-12-01T18:37:33.251Z,101523.69
2022-12-01T18:38:35.142Z,101520.12
2022-12-01T18:39:37.007Z,101517.50
2022-12-01T18:40:39.196Z,101513.11
2022-12-01T18:41:41.070Z,101519.22
2022-12-01T18:42:43.022Z,101519.22
2022-12-01T18:43:46.545Z,101520.92
2022-12-01T18:44:48.744Z,101527.83
2022-12-01T18:45:50.903Z,101521.77
2022-12-01T18:46:52.928Z,101519.95
2022-12-01T18:47:54.922Z,101527.71
2022-12-01T18:48:57.970Z,101520.81
2022-12-01T18:49:59.931Z,101516.55
2022-12-01T18:51:05.277Z,101516.44
2022-12-01T18:52:07.201Z,101522.52
2022-12-01T18:53:09.061Z,101520.77
2022-12-01T18:54:14.906Z,101520.70
2022-12-01T18:55:17.343Z,101519.95
2022-12-01T18:56:19.871Z,101516.38
2022-12-01T18:57:21.988Z,101516.38
2022-12-01T18:58:24.134Z,101516.44
2022-12-01T18:59:26.158Z,101518.11
2022-12-01T19:00:28.925Z,101519.81
2022-12-01T19:01:34.317Z,101521.48
2022-12-01T19:02:36.695Z,101515.54
2022-12-01T19:03:39.106Z,101516.44
2022-12-01T19:04:41.202Z,101519.81
2022-12-01T19:05:43.065Z,101515.54
2022-12-01T19:06:46.058Z,101521.52
2022-12-01T19:07:48.775Z,101517.22
2022-12-01T19:08:52.146Z,101518.11
2022-12-01T19:09:54.149Z,101520.77
2022-12-01T19:11:01.618Z,101525.89
2022-12-01T19:12:03.767Z,101521.57
2022-12-01T19:13:05.910Z,101524.17
2022-12-01T19:14:12.031Z,101525.95
2022-12-01T19:15:13.916Z,101521.66
2022-12-01T19:16:18.470Z,101520.70
2022-12-01T19:17:20.771Z,101522.41
2022-12-01T19:18:23.151Z,101529.41
2022-12-01T19:19:26.205Z,101521.63
2022-12-01T19:20:28.276Z,101525.95
2022-12-01T19:21:30.798Z,101519.09
2022-12-01T19:22:35.050Z,101522.49
2022-12-01T19:23:38.580Z,101529.55
2022-12-01T19:24:40.463Z,101525.31
2022-12-01T19:25:42.332Z,101528.63
2022-12-01T19:26:44.490Z,101525.17
2022-12-01T19:27:46.728Z,101520.81
2022-12-01T19:28:49.093Z,101525.25
2022-12-01T19:29:51.257Z,101522.63
2022-12-01T19:30:53.633Z,101524.20
2022-12-01T19:31:55.563Z,101527.69
2022-12-01T19:32:57.488Z,101527.69
2022-12-01T19:33:59.346Z,101528.55
2022-12-01T19:35:01.227Z,101518.19
2022-12-01T19:36:09.658Z,101526.80
2022-12-01T19:37:12.712Z,101521.69
2022-12-01T19:38:14.716Z,101521.52
2022-12-01T19:39:16.586Z,101528.44
2022-12-01T19:40:18.557Z,101525.81
2022-12-01T19:41:20.718Z,101522.30
2022-12-01T19:42:22.610Z,101524.11
2022-12-01T19:43:24.846Z,101520.56
2022-12-01T19:44:26.710Z,101525.61
2022-12-01T19:45:28.592Z,101517.88
2022-12-01T19:46:30.725Z,101522.09
2022-12-01T19:47:33.917Z,101518.80
2022-12-01T19:48:36.401Z,101526.53
2022-12-01T19:49:38.276Z,101522.17
2022-12-01T19:50:40.335Z,101522.92
2022-12-01T19:51:42.204Z,101522.09
2022-12-01T19:52:45.893Z,101525.46
2022-12-01T19:53:47.903Z,101516.84
2022-12-01T19:54:50.218Z,101523.76
2022-12-01T19:55:52.475Z,101521.11
2022-12-01T19:56:54.432Z,101523.64
2022-12-01T19:57:56.309Z,101529.84
2022-12-01T19:58:58.542Z,101521.20
2022-12-01T20:00:00.567Z,101521.14
2022-12-01T20:01:08.213Z,101525.46
2022-12-01T20:02:10.776Z,101518.52
2022-12-01T20:03:12.748Z,101525.34
2022-12-01T20:04:14.732Z,101525.44
2022-12-01T20:05:17.724Z,101524.56
2022-12-01T20:06:24.400Z,101523.64
2022-12-01T20:07:26.921Z,101511.53
2022-12-01T20:08:29.200Z,101515.86
2022-12-01T20:09:31.327Z,101520.12
2022-12-01T20:10:33.481Z,101513.27
2022-12-01T20:11:36.712Z,101522.81
2022-12-01T20:12:38.684Z,101519.31
2022-12-01T20:13:42.695Z,101525.46
2022-12-01T20:14:45.513Z,101521.97
2022-12-01T20:15:47.424Z,101526.27
2022-12-01T20:16:49.501Z,101521.85
2022-12-01T20:17:51.608Z,101528.83
2022-12-01T20:18:54.591Z,101528.83
2022-12-01T20:19:56.457Z,101525.37
2022-12-01T20:21:27.000Z,101524.56
2022-12-01T20:22:33.589Z,101526.23
2022-12-01T20:23:36.204Z,101525.22
2022-12-01T20:24:38.395Z,101526.12
2022-12-01T20:25:41.003Z,101524.45
2022-12-01T20:26:46.709Z,101524.33
2022-12-01T20:27:50.972Z,101524.33
2022-12-01T20:28:52.927Z,101520.86
2022-12-01T20:29:55.081Z,101525.22
2022-12-01T20:30:59.135Z,101520.09
2022-12-01T20:32:01.646Z,101527.88
2022-12-01T20:33:03.917Z,101510.61
2022-12-01T20:35:20.574Z,101524.66
2022-12-01T20:36:22.870Z,101521.85
2022-12-01T20:37:24.753Z,101524.30
2022-12-01T20:38:27.829Z,101525.93
2022-12-01T20:39:31.613Z,101524.23
2022-12-01T20:40:33.638Z,101532.11
2022-12-01T20:41:39.108Z,101533.03
2022-12-01T20:42:42.449Z,101527.69
2022-12-01T20:43:44.834Z,101525.16
2022-12-01T20:44:47.278Z,101529.39
2022-12-01T20:45:49.660Z,101529.33
2022-12-01T20:46:52.416Z,101530.25
2022-12-01T20:47:54.380Z,101536.38
2022-12-01T20:48:56.542Z,101533.80
2022-12-01T20:49:58.681Z,101532.11
2022-12-01T20:51:02.606Z,101533.80
2022-12-01T20:52:04.706Z,101532.94
2022-12-01T20:53:06.774Z,101532.05
2022-12-01T20:54:28.778Z,101533.55
2022-12-01T20:55:15.476Z,101539.77
2022-12-01T20:56:17.425Z,101536.28
2022-12-01T20:57:19.389Z,101538.01
2022-12-01T20:58:22.122Z,101536.98
2022-12-01T20:59:24.453Z,101538.84
2022-12-01T21:00:26.453Z,101532.75
2022-12-01T21:01:28.472Z,101543.09
2022-12-01T21:02:30.567Z,101542.17
2022-12-01T21:03:32.857Z,101535.31
2022-12-01T21:04:34.739Z,101537.91
2022-12-01T21:05:42.054Z,101547.36
2022-12-01T21:06:44.175Z,101539.70
2022-12-01T21:07:46.128Z,101543.09
2022-12-01T21:08:49.769Z,101535.25
2022-12-01T21:09:51.654Z,101540.38
2022-12-01T21:10:53.611Z,101542.23
2022-12-01T21:11:58.318Z,101537.78
2022-12-01T21:13:04.022Z,101541.38
2022-12-01T21:14:08.232Z,101537.94
2022-12-01T21:15:26.148Z,101542.91
2022-12-01T21:16:32.023Z,101541.24
2022-12-01T21:17:38.388Z,101539.41
2022-12-01T21:18:52.853Z,101532.56
2022-12-01T21:20:25.737Z,101546.46
2022-12-01T21:21:30.677Z,101539.55
2022-12-01T21:22:33.964Z,101542.04
2022-12-01T21:23:35.850Z,101538.55
2022-12-01T21:24:43.550Z,101537.72
2022-12-01T21:25:43.172Z,101528.05
2022-12-01T21:26:55.071Z,101528.05
2022-12-01T21:28:00.894Z,101538.48
2022-12-01T21:29:24.166Z,101534.13
2022-12-01T21:30:26.560Z,101537.63
2022-12-01T21:31:28.717Z,101537.59
2022-12-01T21:32:33.647Z,101536.75
2022-12-01T21:33:36.856Z,101538.42
2022-12-01T21:34:38.747Z,101534.92
2022-12-01T21:35:40.681Z,101539.28
2022-12-01T21:36:42.670Z,101541.02
2022-12-01T21:37:46.322Z,101540.11
2022-12-01T21:38:51.819Z,101539.22
2022-12-01T21:39:56.024Z,101544.44
2022-12-01T21:40:58.033Z,101540.11
2022-12-01T21:42:03.653Z,101541.84
2022-12-01T21:43:11.911Z,101537.39
2022-12-01T21:44:19.883Z,101543.60
2022-12-01T21:45:28.067Z,101538.39
2022-12-01T21:46:30.819Z,101539.19
2022-12-01T21:47:34.143Z,101542.64
2022-12-01T21:48:36.757Z,101534.89
2022-12-01T21:49:39.117Z,101537.55
2022-12-01T21:50:41.535Z,101534.06
2022-12-01T21:51:44.317Z,101540.05
2022-12-01T21:52:47.357Z,101534.80
2022-12-01T21:53:52.446Z,101539.15
2022-12-01T21:54:57.421Z,101539.08
2022-12-01T21:55:59.748Z,101544.34
2022-12-01T21:57:02.408Z,101536.55
2022-12-01T21:58:14.008Z,101537.36
2022-12-01T21:59:21.836Z,101537.42
2022-12-01T22:00:36.023Z,101530.44
2022-12-01T22:01:39.953Z,101534.80
2022-12-01T22:02:50.465Z,101538.25
2022-12-01T22:04:00.526Z,101535.69
2022-12-01T22:04:59.563Z,101536.55
2022-12-01T22:06:28.861Z,101533.86
2022-12-01T22:07:15.286Z,101539.08
2022-12-01T22:08:33.071Z,101536.42
